createdAt,value
2018-09-14T00:00:41.225Z,15.88
2018-09-14T00:03:11.777Z,16.17
2018-09-14T00:05:42.006Z,15.43
2018-09-14T00:08:12.080Z,14.85
2018-09-14T00:10:41.280Z,14.83
2018-09-14T00:13:11.288Z,15.60
2018-09-14T00:15:43.379Z,15.50
2018-09-14T00:18:13.384Z,15.43
2018-09-14T00:20:44.821Z,16.63
2018-09-14T00:23:15.982Z,13.73
2018-09-14T00:25:45.576Z,14.43
2018-09-14T00:28:15.775Z,14.13
2018-09-14T00:30:49.759Z,14.60
2018-09-14T00:33:18.908Z,14.47
2018-09-14T00:35:48.075Z,15.75
2018-09-14T00:38:18.321Z,13.72
2018-09-14T00:40:48.225Z,15.13
2018-09-14T00:43:18.275Z,15.85
2018-09-14T00:45:48.374Z,16.42
2018-09-14T00:48:17.488Z,15.00
2018-09-14T00:50:46.567Z,15.30
2018-09-14T00:53:15.680Z,14.57
2018-09-14T00:55:44.771Z,15.00
2018-09-14T00:58:13.881Z,14.60
2018-09-14T01:00:43.163Z,14.10
2018-09-14T01:03:12.264Z,13.20
2018-09-14T01:05:41.384Z,15.13
2018-09-14T01:08:10.486Z,15.28
2018-09-14T01:10:39.880Z,14.27
2018-09-14T01:13:09.016Z,14.43
2018-09-14T01:15:38.152Z,15.97
2018-09-14T01:18:07.452Z,15.23
2018-09-14T01:20:36.543Z,15.23
2018-09-14T01:23:05.574Z,16.40
2018-09-14T01:25:35.513Z,18.07
2018-09-14T01:28:05.599Z,17.65
2018-09-14T01:30:36.017Z,17.77
2018-09-14T01:33:05.794Z,17.23
2018-09-14T01:35:40.281Z,18.02
2018-09-14T01:38:09.316Z,17.40
2018-09-14T01:40:38.440Z,17.17
2018-09-14T01:43:07.515Z,15.53
2018-09-14T01:45:36.586Z,16.50
2018-09-14T01:48:05.705Z,17.00
2018-09-14T01:50:34.797Z,17.33
2018-09-14T01:53:03.886Z,15.73
2018-09-14T01:55:33.235Z,16.70
2018-09-14T01:58:02.375Z,15.93
2018-09-14T02:00:31.452Z,17.40
2018-09-14T02:03:00.623Z,15.90
2018-09-14T02:05:29.644Z,16.10
2018-09-14T02:07:58.714Z,14.97
2018-09-14T02:10:27.739Z,14.77
2018-09-14T02:12:56.904Z,14.93
2018-09-14T02:15:25.959Z,15.07
2018-09-14T02:17:55.018Z,15.23
2018-09-14T02:20:24.051Z,14.63
2018-09-14T02:22:53.169Z,14.35
2018-09-14T02:25:22.404Z,14.50
2018-09-14T02:27:51.457Z,13.50
2018-09-14T02:30:20.545Z,13.10
2018-09-14T02:32:49.627Z,13.10
2018-09-14T02:35:18.982Z,11.90
2018-09-14T02:37:48.281Z,11.80
2018-09-14T02:40:17.520Z,12.83
2018-09-14T02:42:46.564Z,12.53
2018-09-14T02:45:15.728Z,12.58
2018-09-14T02:47:44.777Z,12.23
2018-09-14T02:50:14.167Z,13.32
2018-09-14T02:52:43.314Z,11.83
2018-09-14T02:55:12.451Z,12.97
2018-09-14T02:57:41.558Z,11.63
2018-09-14T03:00:11.079Z,12.77
2018-09-14T03:02:40.600Z,12.67
2018-09-14T03:05:10.181Z,13.43
2018-09-14T03:07:39.349Z,13.20
2018-09-14T03:10:08.599Z,12.87
2018-09-14T03:12:37.740Z,12.58
2018-09-14T03:15:06.833Z,12.57
2018-09-14T03:17:36.017Z,12.27
2018-09-14T03:20:05.161Z,11.90
2018-09-14T03:22:34.753Z,12.17
2018-09-14T03:25:04.619Z,12.50
2018-09-14T03:27:33.776Z,12.10
2018-09-14T03:30:02.894Z,11.63
2018-09-14T03:32:31.926Z,11.63
2018-09-14T03:35:00.978Z,11.60
2018-09-14T03:37:30.069Z,10.97
2018-09-14T03:39:59.401Z,11.10
2018-09-14T03:42:28.441Z,10.40
2018-09-14T03:44:57.461Z,11.53
2018-09-14T03:47:26.684Z,10.97
2018-09-14T03:49:55.701Z,10.70
2018-09-14T03:52:24.798Z,11.17
2018-09-14T03:54:54.440Z,11.63
2018-09-14T03:57:23.553Z,11.53
2018-09-14T03:59:52.613Z,9.87
2018-09-14T04:02:22.016Z,11.80
2018-09-14T04:04:51.201Z,11.27
2018-09-14T04:07:20.280Z,11.43
2018-09-14T04:12:46.729Z,10.83
2018-09-14T04:15:15.984Z,11.77
2018-09-14T04:17:45.309Z,11.03
2018-09-14T04:20:14.540Z,11.63
2018-09-14T04:22:44.215Z,12.07
2018-09-14T04:25:13.793Z,12.53
2018-09-14T04:27:43.197Z,11.23
2018-09-14T04:30:12.449Z,11.97
2018-09-14T04:32:42.437Z,12.17
2018-09-14T04:35:11.949Z,12.57
2018-09-14T04:37:41.888Z,11.60
2018-09-14T04:40:11.267Z,12.07
2018-09-14T04:42:40.815Z,12.47
2018-09-14T04:45:10.288Z,11.83
2018-09-14T04:47:41.113Z,11.53
2018-09-14T04:50:10.532Z,11.25
2018-09-14T04:52:39.763Z,12.43
2018-09-14T04:55:09.180Z,11.70
2018-09-14T04:57:38.407Z,11.63
2018-09-14T05:00:07.803Z,12.20
2018-09-14T05:02:36.993Z,11.47
2018-09-14T05:05:06.158Z,10.90
2018-09-14T05:07:36.295Z,11.03
2018-09-14T05:10:06.261Z,11.42
2018-09-14T05:12:35.682Z,11.47
2018-09-14T05:15:04.818Z,10.13
2018-09-14T05:17:33.992Z,10.57
2018-09-14T05:20:03.302Z,11.40
2018-09-14T05:22:32.502Z,10.83
2018-09-14T05:25:01.718Z,10.60
2018-09-14T05:27:30.797Z,10.90
2018-09-14T05:29:59.924Z,10.43
2018-09-14T05:32:29.251Z,10.67
2018-09-14T05:34:58.509Z,10.43
2018-09-14T05:37:28.277Z,10.53
2018-09-14T05:39:57.638Z,10.93
2018-09-14T05:42:26.836Z,10.87
2018-09-14T05:44:56.048Z,11.07
2018-09-14T05:47:25.328Z,9.90
2018-09-14T05:49:54.906Z,9.73
2018-09-14T05:52:24.318Z,10.80
2018-09-14T05:54:53.454Z,10.43
2018-09-14T05:57:22.841Z,11.53
2018-09-14T05:59:52.301Z,11.43
2018-09-14T06:07:17.656Z,11.80
2018-09-14T06:09:47.230Z,11.20
2018-09-14T06:12:16.982Z,12.03
2018-09-14T06:14:46.933Z,12.40
2018-09-14T06:17:16.313Z,11.67
2018-09-14T06:19:45.797Z,11.23
2018-09-14T06:22:15.503Z,10.63
2018-09-14T06:24:45.511Z,9.63
2018-09-14T06:27:15.089Z,10.05
2018-09-14T06:29:44.760Z,9.83
2018-09-14T06:32:14.579Z,10.75
2018-09-14T06:34:44.396Z,10.57
2018-09-14T06:37:14.153Z,9.00
2018-09-14T06:39:43.912Z,9.07
2018-09-14T06:42:13.824Z,8.87
2018-09-14T06:44:43.787Z,8.60
2018-09-14T06:47:14.049Z,7.73
2018-09-14T06:49:44.228Z,7.83
2018-09-14T06:52:14.630Z,7.90
2018-09-14T06:54:44.553Z,8.48
2018-09-14T06:57:15.389Z,8.20
2018-09-14T06:59:45.879Z,8.17
2018-09-14T07:02:16.369Z,8.18
2018-09-14T07:04:46.237Z,8.73
2018-09-14T07:07:15.752Z,8.50
2018-09-14T07:09:46.404Z,8.03
2018-09-14T07:12:16.080Z,8.33
2018-09-14T07:14:46.064Z,8.88
2018-09-14T07:17:15.778Z,8.38
2018-09-14T07:19:44.921Z,8.75
2018-09-14T07:22:14.148Z,9.03
2018-09-14T07:24:43.714Z,8.40
2018-09-14T07:27:13.002Z,9.07
2018-09-14T07:29:42.392Z,8.60
2018-09-14T07:32:11.738Z,8.37
2018-09-14T07:34:40.998Z,8.30
2018-09-14T07:37:10.320Z,8.30
2018-09-14T07:39:39.639Z,8.60
2018-09-14T07:42:08.918Z,8.20
2018-09-14T07:44:38.204Z,8.45
2018-09-14T07:47:07.429Z,8.00
2018-09-14T07:49:36.540Z,8.50
2018-09-14T07:52:05.888Z,7.90
2018-09-14T07:54:35.034Z,8.07
2018-09-14T07:57:04.117Z,7.62
2018-09-14T07:59:33.301Z,7.90
2018-09-14T08:02:02.465Z,8.35
2018-09-14T08:04:31.921Z,7.63
2018-09-14T08:07:01.409Z,7.90
2018-09-14T08:09:31.745Z,8.38
2018-09-14T08:12:03.261Z,7.73
2018-09-14T08:14:34.840Z,7.93
2018-09-14T08:17:04.408Z,8.10
2018-09-14T08:19:34.167Z,7.60
2018-09-14T08:22:03.692Z,7.83
2018-09-14T08:24:33.025Z,7.92
2018-09-14T08:27:02.754Z,7.87
2018-09-14T08:29:33.951Z,7.03
2018-09-14T08:32:03.425Z,7.80
2018-09-14T08:34:33.612Z,6.80
2018-09-14T08:37:03.089Z,6.93
2018-09-14T08:39:32.462Z,6.57
2018-09-14T08:42:01.901Z,6.40
2018-09-14T08:44:31.587Z,7.50
2018-09-14T08:47:01.809Z,7.60
2018-09-14T08:49:33.209Z,7.50
2018-09-14T08:52:02.580Z,6.90
2018-09-14T08:54:31.994Z,7.10
2018-09-14T08:57:01.342Z,7.80
2018-09-14T08:59:31.071Z,7.10
2018-09-14T09:02:00.503Z,8.23
2018-09-14T09:04:29.917Z,8.17
2018-09-14T09:06:59.743Z,7.60
2018-09-14T09:09:31.302Z,7.93
2018-09-14T09:12:00.841Z,8.28
2018-09-14T09:14:31.994Z,8.33
2018-09-14T09:17:01.835Z,7.50
2018-09-14T09:19:33.139Z,7.23
2018-09-14T09:22:02.951Z,7.50
2018-09-14T09:24:32.765Z,6.77
2018-09-14T09:27:02.284Z,5.43
2018-09-14T09:29:31.588Z,5.87
2018-09-14T09:32:00.807Z,7.80
2018-09-14T09:34:31.216Z,7.70
2018-09-14T09:37:00.908Z,7.17
2018-09-14T09:39:30.007Z,7.77
2018-09-14T09:41:59.153Z,7.83
2018-09-14T09:44:29.263Z,8.18
2018-09-14T09:46:59.238Z,8.47
2018-09-14T09:49:28.721Z,8.30
2018-09-14T09:51:58.514Z,8.10
2018-09-14T09:54:30.653Z,8.10
2018-09-14T09:57:00.527Z,8.03
2018-09-14T09:59:30.953Z,8.00
2018-09-14T10:02:07.880Z,8.60
2018-09-14T10:05:40.997Z,8.30
2018-09-14T10:08:13.773Z,8.03
2018-09-14T10:10:43.872Z,7.93
2018-09-14T10:13:14.189Z,7.30
2018-09-14T10:15:44.991Z,7.17
2018-09-14T10:18:16.309Z,7.40
2018-09-14T10:20:47.235Z,7.83
2018-09-14T10:23:17.610Z,7.35
2018-09-14T10:25:47.678Z,7.13
2018-09-14T10:28:19.365Z,8.25
2018-09-14T10:30:51.151Z,6.83
2018-09-14T10:33:22.004Z,6.90
2018-09-14T10:35:51.540Z,7.53
2018-09-14T10:38:21.799Z,7.17
2018-09-14T10:40:52.403Z,8.47
2018-09-14T10:43:24.999Z,8.35
2018-09-14T10:45:57.086Z,8.20
2018-09-14T10:48:28.604Z,7.90
2018-09-14T10:50:58.608Z,8.10
2018-09-14T10:53:28.812Z,8.35
2018-09-14T10:55:59.633Z,7.85
2018-09-14T10:58:35.627Z,7.47
2018-09-14T11:01:05.924Z,8.30
2018-09-14T11:03:36.392Z,8.17
2018-09-14T11:06:06.595Z,7.57
2018-09-14T11:08:35.992Z,7.13
2018-09-14T11:11:05.543Z,7.10
2018-09-14T11:13:35.876Z,7.30
2018-09-14T11:16:05.501Z,6.58
2018-09-14T11:18:36.660Z,6.63
2018-09-14T11:21:07.112Z,7.50
2018-09-14T11:23:36.270Z,6.70
2018-09-14T11:26:05.416Z,5.75
2018-09-14T11:28:34.561Z,6.70
2018-09-14T11:31:03.849Z,7.87
2018-09-14T11:33:34.553Z,7.30
2018-09-14T11:36:03.736Z,6.77
2018-09-14T11:38:33.097Z,6.70
2018-09-14T11:41:02.492Z,6.30
2018-09-14T11:43:31.731Z,6.55
2018-09-14T11:46:01.107Z,7.00
2018-09-14T11:48:30.966Z,6.80
2018-09-14T11:51:01.716Z,5.75
2018-09-14T11:53:31.010Z,6.73
2018-09-14T11:56:00.123Z,6.50
2018-09-14T11:58:29.442Z,6.30
2018-09-14T12:00:58.691Z,6.43
2018-09-14T12:03:27.887Z,6.90
2018-09-14T12:05:57.119Z,6.58
2018-09-14T12:08:26.510Z,6.50
2018-09-14T12:10:56.012Z,6.80
2018-09-14T12:13:25.679Z,6.03
2018-09-14T12:15:58.254Z,5.87
2018-09-14T12:18:28.789Z,5.90
2018-09-14T12:20:58.860Z,5.90
2018-09-14T12:23:30.261Z,5.83
2018-09-14T12:26:02.836Z,5.70
2018-09-14T12:28:33.884Z,5.53
2018-09-14T12:31:03.675Z,7.57
2018-09-14T12:33:35.516Z,7.10
2018-09-14T12:36:05.047Z,6.43
2018-09-14T12:38:37.362Z,6.28
2018-09-14T12:41:07.511Z,6.73
2018-09-14T12:43:39.417Z,6.00
2018-09-14T12:46:08.982Z,5.77
2018-09-14T12:48:38.519Z,5.17
2018-09-14T12:51:08.372Z,6.10
2018-09-14T12:53:40.680Z,5.13
2018-09-14T12:56:10.435Z,5.47
2018-09-14T12:58:42.592Z,5.60
2018-09-14T13:01:11.762Z,4.80
2018-09-14T13:03:41.826Z,5.20
2018-09-14T13:06:15.373Z,4.97
2018-09-14T13:08:45.624Z,4.63
2018-09-14T13:11:16.300Z,5.07
2018-09-14T13:13:46.857Z,5.23
2018-09-14T13:16:16.948Z,4.70
2018-09-14T13:18:47.300Z,4.67
2018-09-14T13:21:16.859Z,4.45
2018-09-14T13:23:48.750Z,4.57
2018-09-14T13:26:18.895Z,4.20
2018-09-14T13:28:50.485Z,4.77
2018-09-14T13:31:21.168Z,4.40
2018-09-14T13:33:51.524Z,4.43
2018-09-14T13:36:21.552Z,4.50
2018-09-14T13:38:51.625Z,3.67
2018-09-14T13:41:23.137Z,4.20
2018-09-14T13:43:52.947Z,4.30
2018-09-14T13:46:22.973Z,3.97
2018-09-14T13:48:52.927Z,4.67
2018-09-14T13:56:20.526Z,4.57
2018-09-14T13:58:52.123Z,4.50
2018-09-14T14:01:21.598Z,3.97
2018-09-14T14:03:52.522Z,4.67
2018-09-14T14:06:24.936Z,4.20
2018-09-14T14:08:57.156Z,4.43
2018-09-14T14:11:27.300Z,4.60
2018-09-14T14:13:58.046Z,4.50
2018-09-14T14:16:28.127Z,4.90
2018-09-14T14:18:57.744Z,4.27
2018-09-14T14:21:30.408Z,4.57
2018-09-14T14:24:00.376Z,4.00
2018-09-14T14:26:33.352Z,4.50
2018-09-14T14:29:04.816Z,5.10
2018-09-14T14:31:36.511Z,4.47
2018-09-14T14:34:08.945Z,5.60
2018-09-14T14:36:40.194Z,4.53
2018-09-14T14:39:10.595Z,4.73
2018-09-14T14:41:44.859Z,4.03
2018-09-14T14:44:20.049Z,3.50
2018-09-14T14:46:50.232Z,3.60
2018-09-14T14:49:24.744Z,3.50
2018-09-14T14:52:01.922Z,4.33
2018-09-14T14:54:33.280Z,3.98
2018-09-14T14:57:03.861Z,3.67
2018-09-14T14:59:33.354Z,4.37
2018-09-14T15:02:02.876Z,3.90
2018-09-14T15:04:35.806Z,3.60
2018-09-14T15:07:05.828Z,3.60
2018-09-14T15:09:37.409Z,3.40
2018-09-14T15:12:07.807Z,3.00
2018-09-14T15:14:44.274Z,3.25
2018-09-14T15:17:14.729Z,2.67
2018-09-14T15:19:47.134Z,3.00
2018-09-14T15:22:18.830Z,2.97
2018-09-14T15:24:51.950Z,4.00
2018-09-14T15:27:21.883Z,3.37
2018-09-14T15:29:54.126Z,3.40
2018-09-14T15:32:23.724Z,2.90
2018-09-14T15:34:57.294Z,3.63
2018-09-14T15:37:30.025Z,3.77
2018-09-14T15:40:00.215Z,2.70
2018-09-14T15:42:33.140Z,3.47
2018-09-14T15:45:05.633Z,3.60
2018-09-14T15:47:35.695Z,3.77
2018-09-14T15:50:07.597Z,3.43
2018-09-14T15:52:42.710Z,3.57
2018-09-14T15:55:13.892Z,4.10
2018-09-14T15:57:45.904Z,4.58
2018-09-14T16:00:15.677Z,3.67
2018-09-14T16:02:45.657Z,3.42
2018-09-14T16:05:16.705Z,2.93
2018-09-14T16:07:45.913Z,3.23
2018-09-14T16:10:15.606Z,3.35
2018-09-14T16:12:45.282Z,3.27
2018-09-14T16:15:15.767Z,3.27
2018-09-14T16:17:45.720Z,2.97
2018-09-14T16:20:15.880Z,2.87
2018-09-14T16:22:46.635Z,3.05
2018-09-14T16:25:17.861Z,3.00
2018-09-14T16:27:48.271Z,2.90
2018-09-14T16:30:17.709Z,3.27
2018-09-14T16:32:48.467Z,2.60
2018-09-14T16:35:20.533Z,3.10
2018-09-14T16:37:51.645Z,2.94
2018-09-14T16:40:21.221Z,3.17
2018-09-14T16:42:55.631Z,3.10
2018-09-14T16:45:28.517Z,3.40
2018-09-14T16:47:57.842Z,3.97
2018-09-14T16:50:27.549Z,3.63
2018-09-14T16:52:59.479Z,3.23
2018-09-14T16:55:29.154Z,3.50
2018-09-14T16:57:58.597Z,3.33
2018-09-14T17:00:28.477Z,3.33
2018-09-14T17:02:59.260Z,3.37
2018-09-14T17:05:28.752Z,3.13
2018-09-14T17:07:58.058Z,3.77
2018-09-14T17:10:27.364Z,3.33
2018-09-14T17:12:56.915Z,3.13
2018-09-14T17:15:26.999Z,2.70
2018-09-14T17:17:57.685Z,3.37
2018-09-14T17:20:29.502Z,3.03
2018-09-14T17:22:59.454Z,3.23
2018-09-14T17:25:29.465Z,3.10
2018-09-14T17:27:59.706Z,3.37
2018-09-14T17:30:29.255Z,3.15
2018-09-14T17:32:58.870Z,2.70
2018-09-14T17:35:28.459Z,2.80
2018-09-14T17:37:59.479Z,3.17
2018-09-14T17:40:30.161Z,3.02
2018-09-14T17:43:01.607Z,3.07
2018-09-14T17:45:31.089Z,3.00
2018-09-14T17:48:00.746Z,3.00
2018-09-14T17:50:30.215Z,3.20
2018-09-14T17:52:59.891Z,2.90
2018-09-14T17:55:29.883Z,2.83
2018-09-14T17:57:59.951Z,2.77
2018-09-14T18:00:29.415Z,3.90
2018-09-14T18:03:02.698Z,3.40
2018-09-14T18:05:33.748Z,3.00
2018-09-14T18:08:03.674Z,3.50
2018-09-14T18:10:33.754Z,4.23
2018-09-14T18:13:05.642Z,3.40
2018-09-14T18:15:35.918Z,4.27
2018-09-14T18:18:05.833Z,4.20
2018-09-14T18:20:36.012Z,4.83
2018-09-14T18:23:06.205Z,4.40
2018-09-14T18:25:36.668Z,4.77
2018-09-14T18:28:07.474Z,3.90
2018-09-14T18:30:39.076Z,4.00
2018-09-14T18:33:10.752Z,4.10
2018-09-14T18:35:42.708Z,4.53
2018-09-14T18:38:14.202Z,4.00
2018-09-14T18:40:45.719Z,4.70
2018-09-14T18:43:15.990Z,4.77
2018-09-14T18:45:48.691Z,4.53
2018-09-14T18:48:19.107Z,4.28
2018-09-14T18:50:48.928Z,4.27
2018-09-14T18:53:20.480Z,4.40
2018-09-14T18:55:52.632Z,5.00
2018-09-14T18:58:23.328Z,4.33
2018-09-14T19:00:56.700Z,4.10
2018-09-14T19:03:27.626Z,4.22
2018-09-14T19:05:59.332Z,3.77
2018-09-14T19:08:32.126Z,3.83
2018-09-14T19:11:03.459Z,3.90
2018-09-14T19:13:38.276Z,3.80
2018-09-14T19:16:08.832Z,4.10
2018-09-14T19:18:38.971Z,4.40
2018-09-14T19:21:11.615Z,3.80
2018-09-14T19:23:44.537Z,4.13
2018-09-14T19:26:15.786Z,3.90
2018-09-14T19:28:47.268Z,4.67
2018-09-14T19:31:19.505Z,4.73
2018-09-14T19:33:50.059Z,3.80
2018-09-14T19:36:24.916Z,4.50
2018-09-14T19:38:55.806Z,4.07
2018-09-14T19:41:25.868Z,4.30
2018-09-14T19:43:55.627Z,3.73
2018-09-14T19:46:26.994Z,4.33
2018-09-14T19:48:58.432Z,4.33
2018-09-14T19:51:28.311Z,4.23
2018-09-14T19:53:57.995Z,3.63
2018-09-14T19:56:28.241Z,3.63
2018-09-14T19:58:58.655Z,3.97
2018-09-14T20:01:28.885Z,3.73
2018-09-14T20:03:58.688Z,4.22
2018-09-14T20:06:30.272Z,4.43
2018-09-14T20:09:00.090Z,4.87
2018-09-14T20:11:30.314Z,4.10
2018-09-14T20:14:01.502Z,4.00
2018-09-14T20:16:31.773Z,4.53
2018-09-14T20:19:02.406Z,3.90
2018-09-14T20:21:34.944Z,3.93
2018-09-14T20:24:06.861Z,4.20
2018-09-14T20:26:37.298Z,4.70
2018-09-14T20:29:12.509Z,4.70
2018-09-14T20:31:42.933Z,3.93
2018-09-14T20:34:13.176Z,3.85
2018-09-14T20:36:43.895Z,3.35
2018-09-14T20:39:16.480Z,3.70
2018-09-14T20:41:47.250Z,3.87
2018-09-14T20:44:17.538Z,4.03
2018-09-14T20:46:49.429Z,4.17
2018-09-14T20:49:19.582Z,4.87
2018-09-14T20:51:50.839Z,4.37
2018-09-14T20:54:23.031Z,3.77
2018-09-14T20:56:55.133Z,3.77
2018-09-14T20:59:26.644Z,3.37
2018-09-14T21:01:58.450Z,3.73
2018-09-14T21:04:28.099Z,4.43
2018-09-14T21:06:57.726Z,3.97
2018-09-14T21:09:29.843Z,4.43
2018-09-14T21:11:59.706Z,4.10
2018-09-14T21:14:31.950Z,3.45
2018-09-14T21:17:01.756Z,3.80
2018-09-14T21:19:32.463Z,3.80
2018-09-14T21:22:02.284Z,3.83
2018-09-14T21:24:32.243Z,4.33
2018-09-14T21:27:04.958Z,3.67
2018-09-14T21:29:35.495Z,4.17
2018-09-14T21:32:05.480Z,3.70
2018-09-14T21:34:37.428Z,3.87
2018-09-14T21:37:08.920Z,4.47
2018-09-14T21:39:39.582Z,3.80
2018-09-14T21:42:08.890Z,4.27
2018-09-14T21:44:39.710Z,3.80
2018-09-14T21:47:12.966Z,4.05
2018-09-14T21:49:44.815Z,4.03
2018-09-14T21:52:15.131Z,3.83
2018-09-14T21:54:45.095Z,4.92
2018-09-14T21:57:14.959Z,4.30
2018-09-14T21:59:44.860Z,4.30
2018-09-14T22:02:14.777Z,4.33
2018-09-14T22:04:45.466Z,3.93
2018-09-14T22:07:15.898Z,4.90
2018-09-14T22:09:46.920Z,4.10
2018-09-14T22:12:19.362Z,4.03
2018-09-14T22:14:49.497Z,4.75
2018-09-14T22:17:19.690Z,3.57
2018-09-14T22:19:49.769Z,4.92
2018-09-14T22:22:19.371Z,4.37
2018-09-14T22:24:49.595Z,4.37
2018-09-14T22:27:19.085Z,4.13
2018-09-14T22:29:48.780Z,4.20
2018-09-14T22:32:19.206Z,4.55
2018-09-14T22:34:49.976Z,4.47
2018-09-14T22:37:20.080Z,3.75
2018-09-14T22:39:49.790Z,4.47
2018-09-14T22:42:20.085Z,3.63
2018-09-14T22:44:52.042Z,3.60
2018-09-14T22:47:22.184Z,3.05
2018-09-14T22:49:51.677Z,3.40
2018-09-14T22:52:22.663Z,2.67
2018-09-14T22:54:54.427Z,2.87
2018-09-14T22:57:25.041Z,3.10
2018-09-14T22:59:54.668Z,2.60
2018-09-14T23:02:27.249Z,2.40
2018-09-14T23:04:57.622Z,2.43
2018-09-14T23:07:27.029Z,2.67
2018-09-14T23:09:58.439Z,2.87
2018-09-14T23:12:27.596Z,2.95
2018-09-14T23:14:57.162Z,2.60
2018-09-14T23:17:26.615Z,2.70
2018-09-14T23:19:56.060Z,2.93
2018-09-14T23:22:31.560Z,2.70
2018-09-14T23:25:00.801Z,3.07
2018-09-14T23:27:29.954Z,2.80
2018-09-14T23:30:00.272Z,2.95
2018-09-14T23:32:30.693Z,3.12
2018-09-14T23:35:00.152Z,2.90
2018-09-14T23:37:30.597Z,2.80
2018-09-14T23:40:00.666Z,2.92
2018-09-14T23:42:30.668Z,2.70
2018-09-14T23:44:59.752Z,3.10
2018-09-14T23:47:28.812Z,3.17
2018-09-14T23:49:57.881Z,2.80
2018-09-14T23:52:26.926Z,2.70
2018-09-14T23:54:55.985Z,2.40
2018-09-14T23:57:25.012Z,2.63
2018-09-14T23:59:54.156Z,2.75
